Terminal Aerodrome Forecast
Issued by NWS

Home | Current Version | Previous Version | Text Only | Print | Product List | Glossary On
Versions: 1 2 3 4 5 6 7 8 9 10 11 12 13 14 15 16 17 18 19 20 21 22 23 24 25 26 27 28 29 30 31
000
FTUS44 KHGX 271120
TAFUTS
TAF
KUTS 271120Z 2712/2812 VRB03KT P6SM SCT100 BKN250
     FM271500 06005KT P6SM SCT050 SCT250
     FM272000 10006KT P6SM SCT060 SCT250
     FM280300 12004KT P6SM SCT250=

USA.gov is the U.S. government's official web portal to all federal, state and local government web resources and services.